createdAt,value
2019-03-29T00:00:06.117Z,9.69
2019-03-29T00:01:05.596Z,9.69
2019-03-29T00:02:05.699Z,9.69
2019-03-29T00:03:05.944Z,9.69
2019-03-29T00:04:05.371Z,9.69
2019-03-29T00:05:05.442Z,9.69
2019-03-29T00:06:05.633Z,9.69
2019-03-29T00:07:05.523Z,9.69
2019-03-29T00:08:06.001Z,9.69
2019-03-29T00:09:05.677Z,9.69
2019-03-29T00:10:05.843Z,9.69
2019-03-29T00:11:05.264Z,9.69
2019-03-29T00:12:06.025Z,9.69
2019-03-29T00:13:06.003Z,9.69
2019-03-29T00:14:05.046Z,9.69
2019-03-29T00:15:05.287Z,9.69
2019-03-29T00:16:05.367Z,9.69
2019-03-29T00:17:06.081Z,9.69
2019-03-29T00:18:05.525Z,9.69
2019-03-29T00:19:05.837Z,9.69
2019-03-29T00:20:06.382Z,9.69
2019-03-29T00:21:06.002Z,9.69
2019-03-29T00:22:05.301Z,9.62
2019-03-29T00:23:05.926Z,9.62
2019-03-29T00:24:07.278Z,9.62
2019-03-29T00:25:06.421Z,9.62
2019-03-29T00:26:05.291Z,9.62
2019-03-29T00:27:05.827Z,9.62
2019-03-29T00:28:05.225Z,9.62
2019-03-29T00:29:05.356Z,9.62
2019-03-29T00:30:05.531Z,9.62
2019-03-29T00:31:05.995Z,9.62
2019-03-29T00:32:05.922Z,9.62
2019-03-29T00:33:06.006Z,9.62
2019-03-29T00:34:06.111Z,9.62
2019-03-29T00:35:05.210Z,9.62
2019-03-29T00:36:05.699Z,9.62
2019-03-29T00:37:05.766Z,9.62
2019-03-29T00:38:05.477Z,9.62
2019-03-29T00:39:05.621Z,9.62
2019-03-29T00:40:06.298Z,9.56
2019-03-29T00:41:06.003Z,9.56
2019-03-29T00:42:05.523Z,9.56
2019-03-29T00:43:05.849Z,9.56
2019-03-29T00:44:05.132Z,9.56
2019-03-29T00:45:05.114Z,9.56
2019-03-29T00:46:05.912Z,9.56
2019-03-29T00:47:05.295Z,9.56
2019-03-29T00:48:05.770Z,9.56
2019-03-29T00:49:05.211Z,9.56
2019-03-29T00:50:06.306Z,9.56
2019-03-29T00:51:05.513Z,9.50
2019-03-29T00:52:05.149Z,9.50
2019-03-29T00:53:05.698Z,9.50
2019-03-29T00:54:05.750Z,9.50
2019-03-29T00:55:05.998Z,9.50
2019-03-29T00:56:05.477Z,9.50
2019-03-29T00:57:05.923Z,9.50
2019-03-29T00:58:05.208Z,9.50
2019-03-29T00:59:05.276Z,9.50
2019-03-29T01:00:06.277Z,9.50
2019-03-29T01:01:05.104Z,9.50
2019-03-29T01:02:05.214Z,9.50
2019-03-29T01:03:05.597Z,9.50
2019-03-29T01:04:05.684Z,9.44
2019-03-29T01:05:05.269Z,9.44
2019-03-29T01:06:06.003Z,9.44
2019-03-29T01:07:05.247Z,9.44
2019-03-29T01:08:07.954Z,9.44
2019-03-29T01:09:05.837Z,9.44
2019-03-29T01:10:05.757Z,9.44
2019-03-29T01:11:05.359Z,9.38
2019-03-29T01:12:06.243Z,9.44
2019-03-29T01:13:05.993Z,9.44
2019-03-29T01:14:05.623Z,9.38
2019-03-29T01:15:05.673Z,9.44
2019-03-29T01:16:06.672Z,9.38
2019-03-29T01:17:06.011Z,9.38
2019-03-29T01:18:05.215Z,9.38
2019-03-29T01:19:05.277Z,9.38
2019-03-29T01:20:05.786Z,9.38
2019-03-29T01:21:05.191Z,9.38
2019-03-29T01:22:05.965Z,9.31
2019-03-29T01:23:05.279Z,9.31
2019-03-29T01:24:05.930Z,9.38
2019-03-29T01:25:06.000Z,9.31
2019-03-29T01:26:05.045Z,9.31
2019-03-29T01:27:05.509Z,9.31
2019-03-29T01:28:05.602Z,9.31
2019-03-29T01:29:05.921Z,9.31
2019-03-29T01:30:06.016Z,9.31
2019-03-29T01:31:05.938Z,9.31
2019-03-29T01:32:05.041Z,9.31
2019-03-29T01:33:05.673Z,9.31
2019-03-29T01:34:05.455Z,9.31
2019-03-29T01:35:05.519Z,9.31
2019-03-29T01:36:05.692Z,9.25
2019-03-29T01:37:05.918Z,9.25
2019-03-29T01:38:05.840Z,9.31
2019-03-29T01:39:05.214Z,9.31
2019-03-29T01:40:05.292Z,9.31
2019-03-29T01:41:05.589Z,9.25
2019-03-29T01:42:05.674Z,9.25
2019-03-29T01:43:05.866Z,9.25
2019-03-29T01:44:05.376Z,9.25
2019-03-29T01:45:05.355Z,9.25
2019-03-29T01:46:05.939Z,9.25
2019-03-29T01:47:05.369Z,9.25
2019-03-29T01:48:05.861Z,9.25
2019-03-29T01:49:05.906Z,9.25
2019-03-29T01:50:05.552Z,9.25
2019-03-29T01:51:06.014Z,9.25
2019-03-29T01:52:05.389Z,9.19
2019-03-29T01:53:05.353Z,9.19
2019-03-29T01:54:05.609Z,9.19
2019-03-29T01:55:05.121Z,9.19
2019-03-29T01:56:05.226Z,9.19
2019-03-29T01:57:05.351Z,9.19
2019-03-29T01:58:05.351Z,9.19
2019-03-29T01:59:05.763Z,9.12
2019-03-29T02:00:05.771Z,9.12
2019-03-29T02:01:05.920Z,9.19
2019-03-29T02:02:05.352Z,9.12
2019-03-29T02:03:05.768Z,9.12
2019-03-29T02:04:05.894Z,9.12
2019-03-29T02:05:05.361Z,9.12
2019-03-29T02:06:05.608Z,9.12
2019-03-29T02:07:05.756Z,9.12
2019-03-29T02:08:05.336Z,9.12
2019-03-29T02:09:06.023Z,9.12
2019-03-29T02:10:05.115Z,9.12
2019-03-29T02:11:05.509Z,9.12
2019-03-29T02:12:06.924Z,9.12
2019-03-29T02:13:05.442Z,9.12
2019-03-29T02:14:05.608Z,9.12
2019-03-29T02:15:05.994Z,9.12
2019-03-29T02:16:05.220Z,9.12
2019-03-29T02:17:05.380Z,9.06
2019-03-29T02:18:05.544Z,9.06
2019-03-29T02:19:05.992Z,9.06
2019-03-29T02:20:05.536Z,9.06
2019-03-29T02:21:05.650Z,9.06
2019-03-29T02:22:05.131Z,9.06
2019-03-29T02:23:05.206Z,9.06
2019-03-29T02:24:05.361Z,9.06
2019-03-29T02:25:05.677Z,9.06
2019-03-29T02:26:05.203Z,9.06
2019-03-29T02:27:05.913Z,9.06
2019-03-29T02:28:06.010Z,9.06
2019-03-29T02:29:05.521Z,9.06
2019-03-29T02:30:05.988Z,9.06
2019-03-29T02:31:05.200Z,9.06
2019-03-29T02:32:05.842Z,9.06
2019-03-29T02:33:05.930Z,9.06
2019-03-29T02:34:06.008Z,9.00
2019-03-29T02:35:05.124Z,9.00
2019-03-29T02:36:05.723Z,9.00
2019-03-29T02:37:05.427Z,9.00
2019-03-29T02:38:05.467Z,9.00
2019-03-29T02:39:05.050Z,9.00
2019-03-29T02:40:05.296Z,9.00
2019-03-29T02:41:05.771Z,9.00
2019-03-29T02:42:05.935Z,9.00
2019-03-29T02:43:05.206Z,9.00
2019-03-29T02:44:05.372Z,9.00
2019-03-29T02:45:05.537Z,9.00
2019-03-29T02:46:05.533Z,8.94
2019-03-29T02:47:05.107Z,8.94
2019-03-29T02:48:05.581Z,8.94
2019-03-29T02:49:06.083Z,8.94
2019-03-29T02:50:06.011Z,8.94
2019-03-29T02:51:05.606Z,8.94
2019-03-29T02:52:05.929Z,8.94
2019-03-29T02:53:05.691Z,8.94
2019-03-29T02:54:06.091Z,8.94
2019-03-29T02:55:05.519Z,8.94
2019-03-29T02:56:05.700Z,8.94
2019-03-29T02:57:05.135Z,8.94
2019-03-29T02:58:05.136Z,8.94
2019-03-29T02:59:05.260Z,8.94
2019-03-29T03:00:05.137Z,8.94
2019-03-29T03:01:06.675Z,8.94
2019-03-29T03:02:05.929Z,8.94
2019-03-29T03:03:05.621Z,8.94
2019-03-29T03:04:05.848Z,8.94
2019-03-29T03:05:05.852Z,8.94
2019-03-29T03:06:05.621Z,8.94
2019-03-29T03:07:05.688Z,8.94
2019-03-29T03:08:05.606Z,8.88
2019-03-29T03:09:13.554Z,8.88
2019-03-29T03:10:05.044Z,8.88
2019-03-29T03:11:05.281Z,8.94
2019-03-29T03:12:05.448Z,8.94
2019-03-29T03:13:05.517Z,8.94
2019-03-29T03:14:06.054Z,8.94
2019-03-29T03:15:05.521Z,8.94
2019-03-29T03:16:05.764Z,8.94
2019-03-29T03:17:05.277Z,8.94
2019-03-29T03:18:05.868Z,8.94
2019-03-29T03:19:06.006Z,8.88
2019-03-29T03:20:06.102Z,8.88
2019-03-29T03:21:05.990Z,8.88
2019-03-29T03:22:06.588Z,8.88
2019-03-29T03:23:05.926Z,8.88
2019-03-29T03:24:05.128Z,8.88
2019-03-29T03:25:05.439Z,8.94
2019-03-29T03:26:05.763Z,8.88
2019-03-29T03:27:06.015Z,8.88
2019-03-29T03:28:06.106Z,8.88
2019-03-29T03:29:05.215Z,8.88
2019-03-29T03:30:05.542Z,8.88
2019-03-29T03:31:05.470Z,8.88
2019-03-29T03:32:05.689Z,8.88
2019-03-29T03:33:05.386Z,8.88
2019-03-29T03:34:05.513Z,8.88
2019-03-29T03:35:05.771Z,8.88
2019-03-29T03:36:06.115Z,8.94
2019-03-29T03:37:05.130Z,8.88
2019-03-29T03:38:05.311Z,8.88
2019-03-29T03:39:05.382Z,8.88
2019-03-29T03:40:05.527Z,8.88
2019-03-29T03:41:06.098Z,8.94
2019-03-29T03:42:05.132Z,8.94
2019-03-29T03:43:05.597Z,8.94
2019-03-29T03:44:05.066Z,8.94
2019-03-29T03:45:05.130Z,8.88
2019-03-29T03:46:05.385Z,8.88
2019-03-29T03:47:05.442Z,8.88
2019-03-29T03:48:05.100Z,8.88
2019-03-29T03:49:05.131Z,8.88
2019-03-29T03:50:05.280Z,8.88
2019-03-29T03:51:05.590Z,8.88
2019-03-29T03:52:06.114Z,8.88
2019-03-29T03:53:05.293Z,8.88
2019-03-29T03:54:05.372Z,8.81
2019-03-29T03:55:05.513Z,8.81
2019-03-29T03:56:05.483Z,8.81
2019-03-29T03:57:05.519Z,8.81
2019-03-29T03:58:05.021Z,8.81
2019-03-29T03:59:05.145Z,8.81
2019-03-29T04:00:05.360Z,8.81
2019-03-29T04:01:05.684Z,8.81
2019-03-29T04:02:05.207Z,8.81
2019-03-29T04:03:05.597Z,8.81
2019-03-29T04:04:05.771Z,8.81
2019-03-29T04:05:05.276Z,8.88
2019-03-29T04:06:05.766Z,8.88
2019-03-29T04:07:05.372Z,8.88
2019-03-29T04:08:05.507Z,8.88
2019-03-29T04:09:05.759Z,8.88
2019-03-29T04:10:05.190Z,8.88
2019-03-29T04:11:05.543Z,8.81
2019-03-29T04:12:05.189Z,8.81
2019-03-29T04:13:05.538Z,8.81
2019-03-29T04:14:05.693Z,8.81
2019-03-29T04:15:05.689Z,8.81
2019-03-29T04:16:05.677Z,8.81
2019-03-29T04:17:05.995Z,8.81
2019-03-29T04:18:05.610Z,8.75
2019-03-29T04:19:05.687Z,8.75
2019-03-29T04:20:05.939Z,8.81
2019-03-29T04:21:05.585Z,8.75
2019-03-29T04:22:05.871Z,8.75
2019-03-29T04:23:05.928Z,8.75
2019-03-29T04:24:06.005Z,8.81
2019-03-29T04:25:05.527Z,8.81
2019-03-29T04:26:05.154Z,8.81
2019-03-29T04:27:05.205Z,8.81
2019-03-29T04:28:05.437Z,8.81
2019-03-29T04:29:05.697Z,8.75
2019-03-29T04:30:06.114Z,8.75
2019-03-29T04:31:05.205Z,8.75
2019-03-29T04:32:05.737Z,8.75
2019-03-29T04:33:10.458Z,8.75
2019-03-29T04:34:05.287Z,8.75
2019-03-29T04:35:05.462Z,8.75
2019-03-29T04:36:05.601Z,8.75
2019-03-29T04:37:05.242Z,8.75
2019-03-29T04:38:05.366Z,8.75
2019-03-29T04:39:05.077Z,8.75
2019-03-29T04:40:07.355Z,8.75
2019-03-29T04:41:05.351Z,8.75
2019-03-29T04:42:05.607Z,8.75
2019-03-29T04:43:05.138Z,8.75
2019-03-29T04:44:05.687Z,8.75
2019-03-29T04:45:05.627Z,8.75
2019-03-29T04:46:05.781Z,8.75
2019-03-29T04:47:05.456Z,8.75
2019-03-29T04:48:05.538Z,8.75
2019-03-29T04:49:05.197Z,8.75
2019-03-29T04:50:05.303Z,8.75
2019-03-29T04:51:05.453Z,8.75
2019-03-29T04:52:05.521Z,8.75
2019-03-29T04:53:05.926Z,8.75
2019-03-29T04:54:05.149Z,8.75
2019-03-29T04:55:05.270Z,8.75
2019-03-29T04:56:05.860Z,8.69
2019-03-29T04:57:05.205Z,8.69
2019-03-29T04:58:05.463Z,8.69
2019-03-29T04:59:05.441Z,8.69
2019-03-29T05:00:05.131Z,8.69
2019-03-29T05:01:05.770Z,8.69
2019-03-29T05:02:06.095Z,8.69
2019-03-29T05:03:05.503Z,8.75
2019-03-29T05:04:06.198Z,8.69
2019-03-29T05:05:05.296Z,8.75
2019-03-29T05:06:05.280Z,8.94
2019-03-29T05:07:05.592Z,9.12
2019-03-29T05:08:05.859Z,9.31
2019-03-29T05:09:05.114Z,9.44
2019-03-29T05:10:05.377Z,9.69
2019-03-29T05:11:05.441Z,9.62
2019-03-29T05:12:05.919Z,9.56
2019-03-29T05:13:05.047Z,9.44
2019-03-29T05:14:05.296Z,9.38
2019-03-29T05:15:05.600Z,9.31
2019-03-29T05:16:05.866Z,9.25
2019-03-29T05:17:06.102Z,9.38
2019-03-29T05:18:05.368Z,9.38
2019-03-29T05:19:05.954Z,9.31
2019-03-29T05:20:05.047Z,9.25
2019-03-29T05:21:05.776Z,9.19
2019-03-29T05:22:06.079Z,9.19
2019-03-29T05:23:05.272Z,9.12
2019-03-29T05:24:05.369Z,9.12
2019-03-29T05:25:05.762Z,9.12
2019-03-29T05:26:05.306Z,9.06
2019-03-29T05:27:05.455Z,9.06
2019-03-29T05:28:05.776Z,9.06
2019-03-29T05:29:05.775Z,9.06
2019-03-29T05:30:06.025Z,9.06
2019-03-29T05:31:05.774Z,9.00
2019-03-29T05:32:06.028Z,9.19
2019-03-29T05:33:06.095Z,9.31
2019-03-29T05:34:05.451Z,9.38
2019-03-29T05:35:06.687Z,9.56
2019-03-29T05:36:05.424Z,9.62
2019-03-29T05:37:05.371Z,9.69
2019-03-29T05:38:05.674Z,9.62
2019-03-29T05:39:05.106Z,9.62
2019-03-29T05:40:05.785Z,9.56
2019-03-29T05:41:05.117Z,9.50
2019-03-29T05:42:05.202Z,9.44
2019-03-29T05:43:05.913Z,9.44
2019-03-29T05:44:05.620Z,9.50
2019-03-29T05:45:05.930Z,9.62
2019-03-29T05:46:05.356Z,9.62
2019-03-29T05:47:05.612Z,9.62
2019-03-29T05:48:05.850Z,9.69
2019-03-29T05:49:05.227Z,9.81
2019-03-29T05:50:05.693Z,9.88
2019-03-29T05:51:05.528Z,9.88
2019-03-29T05:52:05.128Z,9.81
2019-03-29T05:53:05.271Z,9.75
2019-03-29T05:54:05.608Z,9.62
2019-03-29T05:55:06.045Z,9.56
2019-03-29T05:56:05.508Z,9.56
2019-03-29T05:57:05.134Z,9.56
2019-03-29T05:58:05.355Z,9.50
2019-03-29T05:59:05.930Z,9.44
2019-03-29T06:00:06.003Z,9.44
2019-03-29T06:01:05.617Z,9.38
2019-03-29T06:02:05.986Z,9.38
2019-03-29T06:03:05.306Z,9.38
2019-03-29T06:04:05.620Z,9.50
2019-03-29T06:05:05.766Z,9.62
2019-03-29T06:06:06.012Z,9.69
2019-03-29T06:07:05.114Z,9.62
2019-03-29T06:08:05.468Z,9.56
2019-03-29T06:09:05.508Z,9.50
2019-03-29T06:10:05.682Z,9.44
2019-03-29T06:12:05.893Z,9.38
2019-03-29T06:13:05.845Z,9.31
2019-03-29T06:14:05.696Z,9.31
2019-03-29T06:15:05.130Z,9.31
2019-03-29T06:16:06.228Z,9.38
2019-03-29T06:17:05.990Z,9.50
2019-03-29T06:18:05.926Z,9.50
2019-03-29T06:19:05.270Z,9.62
2019-03-29T06:20:05.531Z,9.69
2019-03-29T06:21:05.116Z,9.69
2019-03-29T06:22:05.384Z,9.62
2019-03-29T06:23:05.770Z,9.56
2019-03-29T06:24:05.935Z,9.56
2019-03-29T06:25:05.389Z,9.69
2019-03-29T06:26:05.922Z,9.69
2019-03-29T06:27:05.370Z,9.69
2019-03-29T06:28:06.022Z,9.81
2019-03-29T06:29:05.137Z,9.94
2019-03-29T06:30:05.694Z,9.81
2019-03-29T06:31:06.905Z,9.75
2019-03-29T06:32:05.185Z,9.62
2019-03-29T06:33:06.070Z,9.75
2019-03-29T06:34:05.782Z,9.81
2019-03-29T06:35:05.839Z,9.81
2019-03-29T06:36:06.014Z,9.75
2019-03-29T06:37:05.934Z,9.69
2019-03-29T06:38:05.939Z,9.81
2019-03-29T06:39:05.368Z,10.00
2019-03-29T06:40:06.010Z,10.00
2019-03-29T06:41:06.084Z,9.88
2019-03-29T06:42:05.525Z,9.81
2019-03-29T06:43:05.686Z,9.75
2019-03-29T06:44:06.332Z,9.69
2019-03-29T06:45:05.927Z,9.62
2019-03-29T06:46:06.002Z,9.62
2019-03-29T06:47:05.220Z,9.62
2019-03-29T06:48:05.623Z,9.56
2019-03-29T06:49:05.613Z,9.50
2019-03-29T06:50:05.691Z,9.50
2019-03-29T06:51:06.006Z,9.62
2019-03-29T06:52:06.003Z,9.75
2019-03-29T06:53:05.427Z,9.69
2019-03-29T06:54:05.585Z,9.62
2019-03-29T06:55:05.914Z,9.62
2019-03-29T06:56:05.053Z,9.69
2019-03-29T06:57:05.684Z,9.69
2019-03-29T06:58:06.016Z,9.75
2019-03-29T06:59:05.983Z,9.75
2019-03-29T07:00:05.690Z,9.69
2019-03-29T07:01:06.072Z,9.69
2019-03-29T07:02:05.517Z,9.62
2019-03-29T07:03:05.120Z,9.62
2019-03-29T07:04:05.361Z,9.62
2019-03-29T07:05:05.677Z,9.69
2019-03-29T07:06:05.420Z,9.62
2019-03-29T07:07:05.043Z,9.62
2019-03-29T07:08:05.601Z,9.69
2019-03-29T07:09:06.102Z,9.94
2019-03-29T07:10:05.619Z,10.12
2019-03-29T07:11:16.479Z,10.19
2019-03-29T07:12:05.437Z,10.19
2019-03-29T07:13:05.853Z,10.12
2019-03-29T07:14:06.015Z,10.06
2019-03-29T07:15:05.444Z,10.00
2019-03-29T07:16:05.615Z,10.00
2019-03-29T07:17:05.742Z,9.94
2019-03-29T07:18:05.851Z,9.94
2019-03-29T07:19:05.300Z,9.94
2019-03-29T07:20:05.938Z,9.94
2019-03-29T07:21:05.475Z,9.94
2019-03-29T07:22:05.771Z,9.94
2019-03-29T07:23:05.910Z,9.94
2019-03-29T07:24:05.453Z,10.00
2019-03-29T07:25:05.445Z,9.94
2019-03-29T07:26:05.775Z,9.94
2019-03-29T07:27:05.292Z,9.94
2019-03-29T07:28:05.451Z,9.94
2019-03-29T07:29:05.841Z,9.94
2019-03-29T07:30:05.638Z,9.94
2019-03-29T07:31:05.793Z,9.94
2019-03-29T07:32:05.687Z,9.94
2019-03-29T07:33:05.989Z,9.94
2019-03-29T07:34:05.850Z,9.94
2019-03-29T07:35:06.088Z,9.94
2019-03-29T07:36:05.150Z,9.94
2019-03-29T07:37:05.916Z,10.00
2019-03-29T07:38:05.524Z,9.94
2019-03-29T07:39:05.286Z,9.94
2019-03-29T07:40:05.615Z,10.00
2019-03-29T07:41:05.278Z,10.00
2019-03-29T07:42:05.432Z,10.00
2019-03-29T07:43:10.885Z,10.00
2019-03-29T07:44:05.853Z,10.00
2019-03-29T07:45:05.297Z,10.00
2019-03-29T07:46:05.770Z,10.00
2019-03-29T07:47:05.420Z,10.06
2019-03-29T07:48:06.094Z,10.06
2019-03-29T07:49:05.784Z,10.06
2019-03-29T07:50:05.938Z,10.06
2019-03-29T07:51:05.282Z,10.06
2019-03-29T07:52:06.007Z,10.12
2019-03-29T07:53:05.211Z,10.12
2019-03-29T07:54:05.623Z,10.12
2019-03-29T07:55:05.297Z,10.12
2019-03-29T07:56:05.549Z,10.12
2019-03-29T07:57:05.614Z,10.19
2019-03-29T07:58:05.138Z,10.19
2019-03-29T07:59:05.747Z,10.19
2019-03-29T08:00:05.843Z,10.19
2019-03-29T08:01:05.671Z,10.25
2019-03-29T08:02:05.858Z,10.25
2019-03-29T08:03:05.368Z,10.25
2019-03-29T08:04:05.367Z,10.25
2019-03-29T08:05:06.081Z,10.31
2019-03-29T08:06:06.006Z,10.31
2019-03-29T08:07:06.217Z,10.38
2019-03-29T08:08:05.937Z,10.38
2019-03-29T08:09:06.015Z,10.38
2019-03-29T08:10:05.301Z,10.38
2019-03-29T08:11:05.784Z,10.38
2019-03-29T08:12:05.132Z,10.38
2019-03-29T08:13:05.620Z,10.44
2019-03-29T08:14:05.673Z,10.44
2019-03-29T08:15:09.194Z,10.69
2019-03-29T08:16:06.719Z,10.88
2019-03-29T08:17:05.188Z,10.88
2019-03-29T08:18:05.787Z,10.88
2019-03-29T08:19:05.853Z,10.88
2019-03-29T08:20:36.232Z,10.88
2019-03-29T08:21:05.449Z,10.81
2019-03-29T08:22:05.448Z,10.81
2019-03-29T08:23:05.220Z,10.81
2019-03-29T08:24:05.116Z,10.88
2019-03-29T08:25:05.427Z,10.88
2019-03-29T08:26:05.613Z,10.88
2019-03-29T08:27:05.123Z,10.88
2019-03-29T08:28:05.246Z,10.81
2019-03-29T08:29:05.729Z,10.88
2019-03-29T08:30:05.319Z,10.88
2019-03-29T08:31:05.377Z,10.88
2019-03-29T08:32:05.606Z,10.94
2019-03-29T08:33:05.371Z,11.00
2019-03-29T08:34:05.769Z,11.00
2019-03-29T08:35:05.989Z,11.06
2019-03-29T08:36:05.614Z,11.06
2019-03-29T08:37:05.122Z,11.06
2019-03-29T08:38:06.251Z,11.12
2019-03-29T08:39:05.940Z,11.12
2019-03-29T08:40:05.298Z,11.12
2019-03-29T08:41:05.863Z,11.19
2019-03-29T08:42:06.031Z,11.19
2019-03-29T08:43:05.277Z,11.25
2019-03-29T08:44:06.091Z,11.44
2019-03-29T08:45:05.117Z,11.56
2019-03-29T08:46:05.383Z,11.56
2019-03-29T08:47:05.846Z,11.62
2019-03-29T08:48:06.773Z,11.62
2019-03-29T08:49:05.398Z,11.62
2019-03-29T08:50:05.590Z,11.69
2019-03-29T08:51:06.088Z,11.69
2019-03-29T08:52:05.211Z,11.69
2019-03-29T08:53:05.930Z,11.69
2019-03-29T08:54:05.944Z,11.69
2019-03-29T08:55:05.191Z,11.69
2019-03-29T08:56:06.441Z,11.75
2019-03-29T08:57:05.770Z,11.69
2019-03-29T08:58:05.937Z,11.69
2019-03-29T08:59:05.301Z,11.75
2019-03-29T09:00:05.544Z,11.69
2019-03-29T09:01:05.533Z,11.81
2019-03-29T09:02:06.080Z,12.12
2019-03-29T09:03:05.459Z,12.38
2019-03-29T09:04:06.183Z,12.38
2019-03-29T09:05:05.772Z,12.44
2019-03-29T09:06:05.541Z,12.56
2019-03-29T09:07:05.610Z,12.50
2019-03-29T09:08:05.690Z,12.50
2019-03-29T09:09:06.013Z,12.44
2019-03-29T09:10:05.280Z,12.44
2019-03-29T09:11:07.547Z,12.44
2019-03-29T09:12:14.031Z,12.50
2019-03-29T09:13:05.312Z,12.38
2019-03-29T09:14:05.370Z,12.31
2019-03-29T09:15:05.773Z,12.25
2019-03-29T09:16:05.275Z,12.25
2019-03-29T09:17:05.554Z,12.19
2019-03-29T09:18:05.530Z,12.19
2019-03-29T09:19:05.716Z,12.19
2019-03-29T09:20:05.771Z,12.12
2019-03-29T09:21:05.946Z,12.06
2019-03-29T09:22:05.919Z,12.06
2019-03-29T09:23:05.026Z,12.06
2019-03-29T09:24:05.433Z,12.06
2019-03-29T09:25:05.861Z,12.00
2019-03-29T09:26:05.841Z,11.94
2019-03-29T09:27:06.036Z,11.94
2019-03-29T09:28:06.049Z,11.94
2019-03-29T09:29:05.296Z,11.94
2019-03-29T09:30:05.729Z,11.94
2019-03-29T09:31:05.589Z,12.00
2019-03-29T09:32:05.828Z,12.06
2019-03-29T09:33:06.355Z,12.06
2019-03-29T09:34:05.678Z,12.06
2019-03-29T09:35:05.932Z,12.06
2019-03-29T09:36:05.771Z,12.06
2019-03-29T09:37:05.213Z,12.12
2019-03-29T09:38:05.753Z,12.12
2019-03-29T09:39:05.204Z,12.12
2019-03-29T09:40:05.360Z,12.12
2019-03-29T09:41:05.456Z,12.06
2019-03-29T09:42:09.170Z,12.06
2019-03-29T09:43:07.744Z,12.06
2019-03-29T09:44:06.016Z,12.12
2019-03-29T09:45:05.188Z,12.12
2019-03-29T09:46:05.434Z,12.12
2019-03-29T09:47:05.708Z,12.06
2019-03-29T09:48:05.607Z,12.06
2019-03-29T09:49:08.231Z,12.06
2019-03-29T09:50:05.918Z,12.06
2019-03-29T09:51:05.373Z,12.19
2019-03-29T09:52:05.518Z,12.19
2019-03-29T09:53:05.193Z,12.19
2019-03-29T09:54:05.280Z,12.19
2019-03-29T09:55:05.516Z,12.31
2019-03-29T09:56:05.605Z,12.44
2019-03-29T09:57:05.387Z,12.50
2019-03-29T09:58:05.701Z,12.56
2019-03-29T09:59:05.764Z,12.62
2019-03-29T10:00:17.646Z,12.69
2019-03-29T10:01:05.784Z,12.62
2019-03-29T10:02:05.844Z,12.56
2019-03-29T10:03:05.526Z,12.50
2019-03-29T10:04:05.208Z,12.50
2019-03-29T10:05:05.693Z,12.44
2019-03-29T10:06:05.824Z,12.44
2019-03-29T10:07:05.541Z,12.44
2019-03-29T10:08:06.014Z,12.38
2019-03-29T10:09:05.275Z,12.38
2019-03-29T10:10:05.604Z,12.38
2019-03-29T10:11:05.493Z,12.38
2019-03-29T10:12:05.465Z,12.38
2019-03-29T10:13:05.580Z,12.38
2019-03-29T10:14:05.190Z,12.56
2019-03-29T10:15:05.669Z,12.69
2019-03-29T10:16:05.681Z,12.69
2019-03-29T10:17:05.129Z,12.62
2019-03-29T10:18:05.849Z,12.69
2019-03-29T10:19:05.369Z,12.69
2019-03-29T10:20:05.833Z,12.75
2019-03-29T10:21:05.349Z,12.69
2019-03-29T10:22:06.622Z,12.75
2019-03-29T10:23:05.786Z,12.69
2019-03-29T10:24:05.680Z,12.62
2019-03-29T10:25:18.247Z,12.62
2019-03-29T10:26:05.643Z,12.62
2019-03-29T10:27:05.528Z,12.69
2019-03-29T10:28:06.157Z,12.88
2019-03-29T10:29:05.304Z,13.12
2019-03-29T10:30:05.447Z,13.50
2019-03-29T10:31:05.700Z,13.50
2019-03-29T10:32:09.238Z,13.31
2019-03-29T10:33:05.928Z,13.19
2019-03-29T10:34:05.527Z,13.12
2019-03-29T10:35:05.613Z,13.12
2019-03-29T10:36:05.917Z,13.00
2019-03-29T10:37:05.124Z,12.94
2019-03-29T10:38:05.611Z,12.88
2019-03-29T10:39:05.572Z,12.88
2019-03-29T10:40:05.846Z,12.81
2019-03-29T10:41:06.096Z,12.88
2019-03-29T10:42:05.213Z,12.88
2019-03-29T10:43:05.621Z,12.94
2019-03-29T10:44:05.856Z,12.94
2019-03-29T10:45:05.826Z,12.94
2019-03-29T10:46:05.119Z,13.00
2019-03-29T10:47:05.285Z,13.00
2019-03-29T10:48:05.449Z,12.94
2019-03-29T10:49:05.841Z,13.06
2019-03-29T10:50:05.197Z,13.44
2019-03-29T10:51:08.147Z,13.56
2019-03-29T10:52:05.927Z,13.75
2019-03-29T10:53:06.012Z,13.75
2019-03-29T10:54:05.126Z,13.69
2019-03-29T10:55:05.205Z,13.69
2019-03-29T10:56:06.083Z,13.69
2019-03-29T10:57:05.140Z,13.62
2019-03-29T10:58:05.200Z,13.62
2019-03-29T10:59:05.386Z,13.56
2019-03-29T11:00:05.361Z,13.56
2019-03-29T11:01:06.053Z,13.50
2019-03-29T11:02:05.587Z,13.50
2019-03-29T11:03:05.372Z,13.44
2019-03-29T11:04:05.290Z,13.38
2019-03-29T11:05:05.767Z,13.38
2019-03-29T11:06:05.449Z,13.38
2019-03-29T11:07:06.097Z,13.38
2019-03-29T11:08:06.075Z,13.31
2019-03-29T11:09:05.614Z,13.31
2019-03-29T11:10:05.274Z,13.38
2019-03-29T11:11:05.626Z,13.56
2019-03-29T11:12:05.922Z,13.62
2019-03-29T11:13:12.960Z,13.75
2019-03-29T11:14:05.690Z,13.88
2019-03-29T11:15:06.697Z,13.88
2019-03-29T11:16:06.093Z,13.88
2019-03-29T11:17:05.386Z,13.88
2019-03-29T11:18:05.532Z,14.12
2019-03-29T11:19:05.525Z,14.12
2019-03-29T11:20:06.085Z,14.12
2019-03-29T11:21:05.203Z,14.06
2019-03-29T11:22:05.689Z,14.06
2019-03-29T11:23:05.875Z,13.94
2019-03-29T11:24:08.942Z,13.94
2019-03-29T11:25:05.856Z,13.81
2019-03-29T11:26:05.230Z,13.88
2019-03-29T11:27:05.935Z,13.88
2019-03-29T11:28:06.003Z,13.75
2019-03-29T11:29:05.211Z,13.75
2019-03-29T11:30:05.806Z,13.94
2019-03-29T11:31:05.530Z,14.31
2019-03-29T11:32:05.742Z,14.25
2019-03-29T11:33:05.364Z,14.06
2019-03-29T11:34:05.759Z,13.94
2019-03-29T11:35:05.525Z,13.88
2019-03-29T11:36:06.009Z,13.75
2019-03-29T11:37:05.283Z,13.69
2019-03-29T11:38:05.988Z,13.69
2019-03-29T11:39:05.510Z,13.62
2019-03-29T11:40:05.943Z,13.56
2019-03-29T11:41:06.185Z,13.50
2019-03-29T11:42:05.062Z,13.50
2019-03-29T11:43:05.459Z,13.50
2019-03-29T11:44:05.996Z,13.44
2019-03-29T11:45:05.529Z,13.38
2019-03-29T11:46:05.774Z,13.38
2019-03-29T11:47:05.923Z,13.38
2019-03-29T11:48:08.674Z,13.38
2019-03-29T11:49:05.134Z,13.38
2019-03-29T11:50:05.604Z,13.38
2019-03-29T11:51:18.539Z,13.38
2019-03-29T11:52:05.361Z,13.31
2019-03-29T11:53:05.765Z,13.31
2019-03-29T11:54:05.225Z,13.25
2019-03-29T11:55:05.520Z,13.31
2019-03-29T11:56:05.769Z,13.31
2019-03-29T11:57:05.232Z,13.31
2019-03-29T11:58:05.633Z,13.38
2019-03-29T11:59:05.928Z,13.38
2019-03-29T12:00:05.616Z,13.44
2019-03-29T12:01:06.048Z,13.44
2019-03-29T12:02:05.294Z,13.38
2019-03-29T12:03:08.770Z,13.38
2019-03-29T12:04:05.059Z,13.31
2019-03-29T12:05:05.368Z,13.31
2019-03-29T12:06:05.126Z,13.31
2019-03-29T12:07:05.291Z,13.31
2019-03-29T12:08:05.783Z,13.25
2019-03-29T12:09:05.764Z,13.31
2019-03-29T12:10:05.376Z,13.38
2019-03-29T12:11:06.005Z,13.38
2019-03-29T12:12:05.617Z,13.44
2019-03-29T12:13:05.784Z,13.50
2019-03-29T12:14:05.240Z,13.50
2019-03-29T12:15:05.608Z,13.50
2019-03-29T12:16:06.680Z,13.50
2019-03-29T12:17:06.098Z,13.50
2019-03-29T12:18:05.535Z,13.50
2019-03-29T12:19:05.850Z,13.44
2019-03-29T12:20:05.506Z,13.44
2019-03-29T12:21:05.214Z,13.50
2019-03-29T12:22:05.531Z,13.56
2019-03-29T12:23:05.991Z,13.56
2019-03-29T12:24:05.282Z,13.50
2019-03-29T12:25:05.628Z,13.56
2019-03-29T12:26:05.694Z,13.56
2019-03-29T12:27:05.139Z,13.56
2019-03-29T12:28:05.360Z,13.56
2019-03-29T12:29:05.209Z,13.56
2019-03-29T12:30:05.271Z,13.62
2019-03-29T12:31:05.379Z,13.62
2019-03-29T12:32:05.836Z,13.69
2019-03-29T12:33:05.422Z,13.62
2019-03-29T12:34:05.295Z,13.62
2019-03-29T12:35:05.547Z,13.69
2019-03-29T12:36:05.609Z,13.75
2019-03-29T12:37:06.009Z,13.75
2019-03-29T12:38:05.444Z,13.81
2019-03-29T12:39:05.932Z,13.81
2019-03-29T12:40:05.592Z,13.81
2019-03-29T12:41:05.115Z,13.88
2019-03-29T12:42:05.290Z,13.88
2019-03-29T12:43:05.767Z,13.81
2019-03-29T12:44:05.114Z,13.75
2019-03-29T12:45:05.387Z,13.81
2019-03-29T12:46:05.274Z,13.75
2019-03-29T12:47:06.093Z,13.75
2019-03-29T12:48:05.196Z,13.75
2019-03-29T12:49:05.471Z,13.69
2019-03-29T12:50:05.450Z,13.75
2019-03-29T12:51:05.628Z,13.81
2019-03-29T12:52:05.678Z,13.81
2019-03-29T12:53:05.294Z,13.88
2019-03-29T12:54:05.839Z,13.88
2019-03-29T12:55:05.537Z,13.88
2019-03-29T12:56:05.671Z,13.88
2019-03-29T12:57:06.894Z,13.88
2019-03-29T12:58:05.519Z,13.81
2019-03-29T12:59:05.592Z,13.75
2019-03-29T13:00:05.836Z,13.75
2019-03-29T13:01:05.327Z,13.75
2019-03-29T13:02:05.587Z,13.75
2019-03-29T13:03:05.665Z,13.75
2019-03-29T13:04:05.929Z,13.75
2019-03-29T13:05:05.939Z,13.81
2019-03-29T13:06:05.046Z,13.88
2019-03-29T13:07:05.772Z,13.88
2019-03-29T13:08:05.210Z,13.88